createdAt,value
2018-09-18T00:00:11.529Z,100289.34
2018-09-18T00:00:42.640Z,100291.19
2018-09-18T00:01:13.851Z,100290.05
2018-09-18T00:01:45.093Z,100293.14
2018-09-18T00:02:16.249Z,100294.47
2018-09-18T00:02:47.421Z,100292.30
2018-09-18T00:03:18.554Z,100294.95
2018-09-18T00:03:49.665Z,100286.70
2018-09-18T00:04:20.981Z,100290.14
2018-09-18T00:04:52.190Z,100291.28
2018-09-18T00:05:23.311Z,100287.31
2018-09-18T00:05:54.480Z,100288.24
2018-09-18T00:06:25.634Z,100288.81
2018-09-18T00:06:56.785Z,100287.55
2018-09-18T00:07:27.903Z,100288.03
2018-09-18T00:07:59.080Z,100280.63
2018-09-18T00:08:30.196Z,100288.95
2018-09-18T00:09:01.312Z,100287.23
2018-09-18T00:09:32.458Z,100284.20
2018-09-18T00:10:03.632Z,100285.70
2018-09-18T00:10:34.801Z,100283.59
2018-09-18T00:11:05.962Z,100283.68
2018-09-18T00:11:37.074Z,100283.77
2018-09-18T00:12:08.197Z,100277.69
2018-09-18T00:12:39.349Z,100283.55
2018-09-18T00:13:10.486Z,100283.69
2018-09-18T00:13:41.601Z,100275.45
2018-09-18T00:14:12.719Z,100276.28
2018-09-18T00:14:43.857Z,100278.00
2018-09-18T00:15:15.048Z,100276.59
2018-09-18T00:15:46.259Z,100276.68
2018-09-18T00:16:17.418Z,100272.80
2018-09-18T00:16:48.598Z,100272.31
2018-09-18T00:17:19.752Z,100276.28
2018-09-18T00:17:50.863Z,100273.28
2018-09-18T00:18:21.994Z,100275.05
2018-09-18T00:18:53.101Z,100273.95
2018-09-18T00:19:24.329Z,100269.06
2018-09-18T00:19:55.504Z,100272.27
2018-09-18T00:20:26.639Z,100269.54
2018-09-18T00:20:57.807Z,100274.34
2018-09-18T00:21:28.960Z,100270.24
2018-09-18T00:22:00.074Z,100274.52
2018-09-18T00:22:31.178Z,100272.31
2018-09-18T00:23:02.381Z,100269.00
2018-09-18T00:23:33.502Z,100271.79
2018-09-18T00:24:04.668Z,100271.48
2018-09-18T00:24:35.836Z,100275.63
2018-09-18T00:25:07.009Z,100277.09
2018-09-18T00:25:38.181Z,100273.20
2018-09-18T00:26:09.347Z,100278.33
2018-09-18T00:26:40.516Z,100271.27
2018-09-18T00:27:11.635Z,100279.20
2018-09-18T00:27:42.748Z,100275.16
2018-09-18T00:28:13.863Z,100275.06
2018-09-18T00:28:44.998Z,100274.27
2018-09-18T00:29:16.133Z,100273.30
2018-09-18T00:29:47.308Z,100282.30
2018-09-18T00:30:18.447Z,100282.30
2018-09-18T00:30:49.680Z,100284.33
2018-09-18T00:31:20.858Z,100282.21
2018-09-18T00:31:52.047Z,100276.08
2018-09-18T00:32:23.241Z,100278.24
2018-09-18T00:32:54.406Z,100281.77
2018-09-18T00:33:25.531Z,100280.89
2018-09-18T00:33:56.691Z,100279.66
2018-09-18T00:34:27.838Z,100277.48
2018-09-18T00:34:58.971Z,100282.38
2018-09-18T00:35:30.119Z,100280.23
2018-09-18T00:36:01.255Z,100278.47
2018-09-18T00:36:32.357Z,100286.34
2018-09-18T00:37:03.475Z,100281.06
2018-09-18T00:37:34.595Z,100286.34
2018-09-18T00:38:05.757Z,100284.49
2018-09-18T00:38:36.963Z,100282.21
2018-09-18T00:39:08.087Z,100279.52
2018-09-18T00:39:39.195Z,100280.66
2018-09-18T00:40:10.298Z,100283.31
2018-09-18T00:40:41.437Z,100284.72
2018-09-18T00:41:12.557Z,100286.12
2018-09-18T00:41:43.694Z,100288.82
2018-09-18T00:42:14.875Z,100284.33
2018-09-18T00:42:45.998Z,100286.12
2018-09-18T00:43:17.232Z,100281.84
2018-09-18T00:43:48.376Z,100286.66
2018-09-18T00:44:19.518Z,100288.82
2018-09-18T00:44:50.690Z,100288.52
2018-09-18T00:45:21.832Z,100287.24
2018-09-18T00:45:52.940Z,100287.95
2018-09-18T00:46:24.079Z,100290.05
2018-09-18T00:46:55.283Z,100287.41
2018-09-18T00:47:26.426Z,100286.23
2018-09-18T00:47:57.556Z,100292.08
2018-09-18T00:48:28.722Z,100287.23
2018-09-18T00:48:59.837Z,100282.03
2018-09-18T00:49:30.966Z,100285.38
2018-09-18T00:50:02.102Z,100283.84
2018-09-18T00:50:33.246Z,100283.36
2018-09-18T00:51:04.356Z,100287.67
2018-09-18T00:51:35.524Z,100285.34
2018-09-18T00:52:06.834Z,100287.89
2018-09-18T00:52:38.022Z,100280.89
2018-09-18T00:53:09.160Z,100280.63
2018-09-18T00:53:40.302Z,100286.14
2018-09-18T00:54:11.428Z,100284.59
2018-09-18T00:54:42.668Z,100284.20
2018-09-18T00:55:13.851Z,100281.24
2018-09-18T00:55:45.092Z,100282.96
2018-09-18T00:56:16.261Z,100284.37
2018-09-18T00:56:47.393Z,100284.37
2018-09-18T00:57:18.632Z,100277.45
2018-09-18T00:57:49.774Z,100279.08
2018-09-18T00:58:20.887Z,100277.36
2018-09-18T00:58:52.044Z,100282.34
2018-09-18T00:59:23.245Z,100278.45
2018-09-18T00:59:54.425Z,100276.34
2018-09-18T01:00:25.607Z,100279.60
2018-09-18T01:00:56.713Z,100280.70
2018-09-18T01:01:27.819Z,100282.77
2018-09-18T01:01:58.928Z,100279.80
2018-09-18T01:02:30.140Z,100280.37
2018-09-18T01:03:01.328Z,100282.09
2018-09-18T01:03:32.527Z,100281.92
2018-09-18T01:04:03.694Z,100277.47
2018-09-18T01:04:34.830Z,100278.48
2018-09-18T01:05:05.964Z,100279.66
2018-09-18T01:05:37.123Z,100281.51
2018-09-18T01:06:08.360Z,100281.67
2018-09-18T01:06:39.491Z,100280.80
2018-09-18T01:07:10.725Z,100275.91
2018-09-18T01:07:41.868Z,100277.39
2018-09-18T01:08:12.987Z,100283.52
2018-09-18T01:08:44.139Z,100283.52
2018-09-18T01:09:15.312Z,100279.16
2018-09-18T01:09:46.419Z,100283.60
2018-09-18T01:10:17.546Z,100285.72
2018-09-18T01:10:48.695Z,100287.88
2018-09-18T01:11:19.790Z,100289.60
2018-09-18T01:11:50.950Z,100286.56
2018-09-18T01:12:22.075Z,100289.28
2018-09-18T01:12:53.222Z,100286.69
2018-09-18T01:13:24.378Z,100287.17
2018-09-18T01:13:55.551Z,100289.02
2018-09-18T01:14:26.667Z,100285.01
2018-09-18T01:14:57.843Z,100285.94
2018-09-18T01:15:28.980Z,100286.33
2018-09-18T01:16:00.098Z,100282.81
2018-09-18T01:16:31.225Z,100279.01
2018-09-18T01:17:02.386Z,100282.05
2018-09-18T01:17:33.560Z,100275.97
2018-09-18T01:18:04.716Z,100282.66
2018-09-18T01:18:35.836Z,100284.03
2018-09-18T01:19:07.001Z,100277.98
2018-09-18T01:19:38.148Z,100198.17
2018-09-18T01:20:09.255Z,100284.80
2018-09-18T01:20:40.363Z,100277.95
2018-09-18T01:21:11.470Z,100280.13
2018-09-18T01:21:42.654Z,100283.64
2018-09-18T01:22:13.826Z,100283.16
2018-09-18T01:22:44.951Z,100285.88
2018-09-18T01:23:16.090Z,100288.13
2018-09-18T01:23:47.220Z,100287.65
2018-09-18T01:24:18.335Z,100281.61
2018-09-18T01:24:49.460Z,100278.56
2018-09-18T01:25:20.586Z,100278.41
2018-09-18T01:25:51.712Z,100281.84
2018-09-18T01:26:22.845Z,100282.23
2018-09-18T01:26:54.050Z,100280.52
2018-09-18T01:27:25.182Z,100277.87
2018-09-18T01:27:56.295Z,100278.28
2018-09-18T01:28:27.456Z,100282.23
2018-09-18T01:28:58.692Z,100282.23
2018-09-18T01:29:29.802Z,100281.31
2018-09-18T01:30:00.935Z,100278.67
2018-09-18T01:30:32.119Z,100276.95
2018-09-18T01:31:03.349Z,100276.56
2018-09-18T01:31:34.484Z,100275.63
2018-09-18T01:32:05.619Z,100277.87
2018-09-18T01:32:36.722Z,100277.80
2018-09-18T01:33:07.920Z,100270.75
2018-09-18T01:33:39.062Z,100273.91
2018-09-18T01:34:10.318Z,100271.75
2018-09-18T01:34:41.423Z,100276.64
2018-09-18T01:35:12.536Z,100275.31
2018-09-18T01:35:43.752Z,100274.31
2018-09-18T01:36:14.935Z,100278.36
2018-09-18T01:36:46.063Z,100276.23
2018-09-18T01:37:17.208Z,100269.72
2018-09-18T01:37:48.391Z,100279.36
2018-09-18T01:38:19.596Z,100277.40
2018-09-18T01:38:50.711Z,100271.11
2018-09-18T01:39:21.890Z,100270.19
2018-09-18T01:39:53.085Z,100274.02
2018-09-18T01:40:24.199Z,100273.09
2018-09-18T01:40:55.339Z,100273.94
2018-09-18T01:41:26.857Z,100269.13
2018-09-18T01:41:57.998Z,100270.90
2018-09-18T01:42:29.187Z,100271.37
2018-09-18T01:43:00.347Z,100273.63
2018-09-18T01:43:31.502Z,100270.59
2018-09-18T01:44:02.675Z,100276.34
2018-09-18T01:44:33.800Z,100271.59
2018-09-18T01:45:04.951Z,100270.35
2018-09-18T01:45:36.064Z,100273.83
2018-09-18T01:46:07.194Z,100266.91
2018-09-18T01:46:38.304Z,100267.00
2018-09-18T01:47:09.439Z,100269.64
2018-09-18T01:47:40.576Z,100271.44
2018-09-18T01:48:11.706Z,100267.08
2018-09-18T01:48:42.916Z,100267.48
2018-09-18T01:49:14.061Z,100273.28
2018-09-18T01:49:45.177Z,100269.84
2018-09-18T01:50:16.313Z,100267.77
2018-09-18T01:50:47.433Z,100269.61
2018-09-18T01:51:18.539Z,100264.02
2018-09-18T01:51:49.667Z,100274.58
2018-09-18T01:52:20.776Z,100275.02
2018-09-18T01:52:51.920Z,100272.06
2018-09-18T01:53:23.084Z,100270.82
2018-09-18T01:53:54.272Z,100272.94
2018-09-18T01:54:25.447Z,100278.06
2018-09-18T01:54:56.554Z,100270.22
2018-09-18T01:55:27.708Z,100277.34
2018-09-18T01:55:58.846Z,100269.98
2018-09-18T01:56:29.958Z,100277.42
2018-09-18T01:57:01.153Z,100273.86
2018-09-18T01:57:32.287Z,100278.06
2018-09-18T01:58:03.405Z,100272.17
2018-09-18T01:58:34.530Z,100276.37
2018-09-18T01:59:05.702Z,100276.95
2018-09-18T01:59:36.894Z,100279.75
2018-09-18T02:00:08.070Z,100280.38
2018-09-18T02:00:39.225Z,100281.09
2018-09-18T02:01:10.351Z,100277.13
2018-09-18T02:01:41.525Z,100277.13
2018-09-18T02:02:12.755Z,100275.45
2018-09-18T02:02:43.879Z,100281.09
2018-09-18T02:03:14.984Z,100280.73
2018-09-18T02:03:46.125Z,100280.33
2018-09-18T02:04:17.233Z,100278.09
2018-09-18T02:04:48.374Z,100280.56
2018-09-18T02:05:19.506Z,100281.36
2018-09-18T02:05:50.620Z,100281.75
2018-09-18T02:06:21.786Z,100287.80
2018-09-18T02:06:52.922Z,100277.63
2018-09-18T02:07:24.072Z,100284.71
2018-09-18T02:07:55.227Z,100280.27
2018-09-18T02:08:26.403Z,100283.44
2018-09-18T02:08:57.591Z,100284.39
2018-09-18T02:09:28.708Z,100281.75
2018-09-18T02:09:59.860Z,100281.36
2018-09-18T02:10:30.994Z,100281.80
2018-09-18T02:11:02.112Z,100286.33
2018-09-18T02:11:33.226Z,100284.61
2018-09-18T02:12:04.434Z,100282.81
2018-09-18T02:12:35.550Z,100284.61
2018-09-18T02:13:06.668Z,100287.17
2018-09-18T02:13:37.778Z,100283.38
2018-09-18T02:14:08.940Z,100280.09
2018-09-18T02:14:40.079Z,100285.45
2018-09-18T02:15:11.233Z,100285.01
2018-09-18T02:15:42.345Z,100280.56
2018-09-18T02:16:13.452Z,100282.41
2018-09-18T02:16:44.628Z,100285.45
2018-09-18T02:17:15.806Z,100287.09
2018-09-18T02:17:46.977Z,100289.13
2018-09-18T02:18:18.108Z,100283.70
2018-09-18T02:18:49.206Z,100288.42
2018-09-18T02:19:20.345Z,100290.67
2018-09-18T02:19:51.502Z,100291.23
2018-09-18T02:20:22.620Z,100294.01
2018-09-18T02:20:53.732Z,100291.05
2018-09-18T02:21:24.871Z,100284.92
2018-09-18T02:21:56.005Z,100291.66
2018-09-18T02:22:27.139Z,100288.70
2018-09-18T02:22:58.323Z,100289.10
2018-09-18T02:23:29.443Z,100292.05
2018-09-18T02:24:00.564Z,100289.81
2018-09-18T02:24:31.693Z,100295.94
2018-09-18T02:25:02.791Z,100292.85
2018-09-18T02:25:33.967Z,100288.80
2018-09-18T02:26:05.095Z,100286.16
2018-09-18T02:26:36.259Z,100289.41
2018-09-18T02:27:07.390Z,100286.77
2018-09-18T02:27:38.550Z,100292.22
2018-09-18T02:28:09.690Z,100284.98
2018-09-18T02:28:40.857Z,100293.44
2018-09-18T02:29:11.989Z,100289.48
2018-09-18T02:29:43.171Z,100290.40
2018-09-18T02:30:14.308Z,100286.03
2018-09-18T02:30:45.439Z,100294.76
2018-09-18T02:31:16.552Z,100289.48
2018-09-18T02:31:47.715Z,100288.16
2018-09-18T02:32:18.851Z,100287.75
2018-09-18T02:32:49.986Z,100293.44
2018-09-18T02:33:21.182Z,100293.20
2018-09-18T02:33:52.332Z,100294.66
2018-09-18T02:34:23.500Z,100291.69
2018-09-18T02:34:54.738Z,100290.24
2018-09-18T02:35:25.848Z,100294.20
2018-09-18T02:35:56.982Z,100287.44
2018-09-18T02:36:28.111Z,100291.32
2018-09-18T02:36:59.229Z,100287.63
2018-09-18T02:37:30.338Z,100290.11
2018-09-18T02:38:01.504Z,100262.72
2018-09-18T02:38:32.611Z,100287.47
2018-09-18T02:39:03.789Z,100288.87
2018-09-18T02:39:34.953Z,100289.48
2018-09-18T02:40:06.121Z,100287.92
2018-09-18T02:40:37.249Z,100290.16
2018-09-18T02:41:08.410Z,100294.20
2018-09-18T02:41:39.527Z,100292.01
2018-09-18T02:42:10.652Z,100291.48
2018-09-18T02:42:41.816Z,100292.80
2018-09-18T02:43:12.949Z,100287.84
2018-09-18T02:43:44.050Z,100293.96
2018-09-18T02:44:15.174Z,100287.36
2018-09-18T02:44:46.293Z,100290.00
2018-09-18T02:45:17.464Z,100294.05
2018-09-18T02:45:48.652Z,100293.20
2018-09-18T02:46:19.851Z,100296.89
2018-09-18T02:46:51.027Z,100292.62
2018-09-18T02:47:22.124Z,100293.62
2018-09-18T02:47:53.250Z,100294.41
2018-09-18T02:48:24.426Z,100297.05
2018-09-18T02:48:55.601Z,100298.37
2018-09-18T02:49:26.706Z,100296.27
2018-09-18T02:49:58.742Z,100296.27
2018-09-18T02:50:29.940Z,100293.67
2018-09-18T02:51:01.111Z,100295.31
2018-09-18T02:51:32.251Z,100297.08
2018-09-18T02:52:03.468Z,100298.88
2018-09-18T02:52:34.643Z,100297.64
2018-09-18T02:53:05.805Z,100295.84
2018-09-18T02:53:36.937Z,100297.31
2018-09-18T02:54:08.082Z,100294.72
2018-09-18T02:54:39.218Z,100294.41
2018-09-18T02:55:10.343Z,100294.48
2018-09-18T02:55:41.492Z,100288.80
2018-09-18T02:56:12.623Z,100295.00
2018-09-18T02:56:43.727Z,100289.36
2018-09-18T02:57:14.862Z,100290.28
2018-09-18T02:57:46.006Z,100287.64
2018-09-18T02:58:17.175Z,100288.16
2018-09-18T02:58:48.300Z,100289.16
2018-09-18T02:59:19.410Z,100289.23
2018-09-18T02:59:50.528Z,100286.67
2018-09-18T03:00:21.650Z,100287.67
2018-09-18T03:00:52.793Z,100287.33
2018-09-18T03:01:23.930Z,100285.64
2018-09-18T03:01:55.065Z,100285.69
2018-09-18T03:02:26.285Z,100286.63
2018-09-18T03:02:57.426Z,100291.52
2018-09-18T03:03:28.552Z,100287.23
2018-09-18T03:03:59.687Z,100287.08
2018-09-18T03:04:30.801Z,100280.08
2018-09-18T03:05:02.037Z,100286.75
2018-09-18T03:05:33.173Z,100287.95
2018-09-18T03:06:04.293Z,100281.11
2018-09-18T03:06:35.440Z,100279.39
2018-09-18T03:07:06.570Z,100278.74
2018-09-18T03:07:37.772Z,100281.06
2018-09-18T03:08:08.958Z,100285.09
2018-09-18T03:08:40.106Z,100286.53
2018-09-18T03:09:11.224Z,100284.36
2018-09-18T03:09:42.344Z,100276.57
2018-09-18T03:10:13.463Z,100283.23
2018-09-18T03:10:44.599Z,100280.75
2018-09-18T03:11:15.835Z,100283.51
2018-09-18T03:11:46.980Z,100283.26
2018-09-18T03:12:18.132Z,100289.45
2018-09-18T03:12:49.238Z,100286.56
2018-09-18T03:13:20.396Z,100283.97
2018-09-18T03:13:51.579Z,100289.06
2018-09-18T03:14:22.725Z,100288.81
2018-09-18T03:14:53.846Z,100293.31
2018-09-18T03:15:25.029Z,100289.88
2018-09-18T03:15:56.174Z,100285.59
2018-09-18T03:16:27.274Z,100287.31
2018-09-18T03:16:58.453Z,100287.76
2018-09-18T03:17:29.583Z,100288.23
2018-09-18T03:18:00.774Z,100285.59
2018-09-18T03:18:32.502Z,100288.71
2018-09-18T03:19:03.681Z,100286.59
2018-09-18T03:19:34.885Z,100286.19
2018-09-18T03:20:06.052Z,100289.30
2018-09-18T03:20:37.243Z,100287.10
2018-09-18T03:21:08.494Z,100289.70
2018-09-18T03:21:39.617Z,100290.14
2018-09-18T03:22:10.805Z,100291.53
2018-09-18T03:22:41.903Z,100293.36
2018-09-18T03:23:13.279Z,100290.73
2018-09-18T03:23:44.415Z,100293.84
2018-09-18T03:24:15.572Z,100286.38
2018-09-18T03:24:46.695Z,100293.77
2018-09-18T03:25:17.804Z,100297.72
2018-09-18T03:25:48.968Z,100296.41
2018-09-18T03:26:20.086Z,100295.16
2018-09-18T03:26:51.221Z,100295.59
2018-09-18T03:27:22.448Z,100294.75
2018-09-18T03:27:53.575Z,100293.51
2018-09-18T03:28:24.807Z,100292.19
2018-09-18T03:28:55.940Z,100293.11
2018-09-18T03:29:27.072Z,100293.11
2018-09-18T03:29:58.209Z,100293.11
2018-09-18T03:30:29.369Z,100297.53
2018-09-18T03:31:00.487Z,100289.23
2018-09-18T03:31:31.660Z,100297.53
2018-09-18T03:32:02.769Z,100295.85
2018-09-18T03:32:33.932Z,100288.89
2018-09-18T03:33:05.059Z,100297.31
2018-09-18T03:33:36.211Z,100300.06
2018-09-18T03:34:07.380Z,100296.58
2018-09-18T03:34:38.510Z,100298.37
2018-09-18T03:35:09.680Z,100304.09
2018-09-18T03:35:40.932Z,100298.37
2018-09-18T03:36:12.041Z,100301.78
2018-09-18T03:36:43.148Z,100299.55
2018-09-18T03:37:14.295Z,100303.91
2018-09-18T03:37:45.418Z,100301.27
2018-09-18T03:38:16.573Z,100300.87
2018-09-18T03:38:47.671Z,100298.23
2018-09-18T03:39:18.772Z,100306.54
2018-09-18T03:39:49.883Z,100302.66
2018-09-18T03:40:21.001Z,100303.09
2018-09-18T03:40:52.168Z,100300.06
2018-09-18T03:41:23.289Z,100302.77
2018-09-18T03:41:54.438Z,100301.92
2018-09-18T03:42:25.574Z,100300.61
2018-09-18T03:42:56.701Z,100300.61
2018-09-18T03:43:27.925Z,100300.61
2018-09-18T03:43:59.160Z,100297.57
2018-09-18T03:44:30.276Z,100303.35
2018-09-18T03:45:01.392Z,100305.22
2018-09-18T03:45:32.588Z,100301.70
2018-09-18T03:46:03.661Z,100304.81
2018-09-18T03:46:34.775Z,100300.86
2018-09-18T03:47:05.924Z,100301.84
2018-09-18T03:47:37.071Z,100304.55
2018-09-18T03:48:08.243Z,100310.73
2018-09-18T03:48:39.425Z,100311.66
2018-09-18T03:49:10.540Z,100305.47
2018-09-18T03:49:41.657Z,100309.93
2018-09-18T03:50:12.794Z,100311.25
2018-09-18T03:50:43.922Z,100304.73
2018-09-18T03:51:15.036Z,100308.21
2018-09-18T03:51:46.148Z,100313.48
2018-09-18T03:52:17.320Z,100313.08
2018-09-18T03:52:48.427Z,100314.39
2018-09-18T03:53:19.574Z,100313.62
2018-09-18T03:53:50.754Z,100312.41
2018-09-18T03:54:21.892Z,100319.88
2018-09-18T03:54:53.049Z,100316.44
2018-09-18T03:55:24.173Z,100315.19
2018-09-18T03:55:55.364Z,100316.50
2018-09-18T03:56:26.473Z,100318.22
2018-09-18T03:56:57.592Z,100319.91
2018-09-18T03:57:28.834Z,100314.27
2018-09-18T03:58:00.012Z,100319.55
2018-09-18T03:58:31.207Z,100319.55
2018-09-18T03:59:02.328Z,100319.20
2018-09-18T03:59:33.493Z,100321.03
2018-09-18T04:00:04.712Z,100318.06
2018-09-18T04:00:35.828Z,100317.80
2018-09-18T04:01:06.959Z,100317.06
2018-09-18T04:01:38.127Z,100319.36
2018-09-18T04:02:09.236Z,100319.47
2018-09-18T04:02:40.411Z,100320.38
2018-09-18T04:03:11.538Z,100321.69
2018-09-18T04:03:42.678Z,100320.78
2018-09-18T04:04:13.792Z,100328.11
2018-09-18T04:04:44.951Z,100319.36
2018-09-18T04:05:16.061Z,100318.55
2018-09-18T04:05:47.171Z,100317.30
2018-09-18T04:06:18.281Z,100319.97
2018-09-18T04:06:49.429Z,100316.02
2018-09-18T04:07:20.559Z,100315.17
2018-09-18T04:07:51.699Z,100322.23
2018-09-18T04:08:22.868Z,100317.07
2018-09-18T04:08:53.989Z,100319.70
2018-09-18T04:09:25.146Z,100318.32
2018-09-18T04:09:56.377Z,100316.09
2018-09-18T04:10:27.498Z,100320.04
2018-09-18T04:10:58.627Z,100323.55
2018-09-18T04:11:29.792Z,100319.63
2018-09-18T04:12:01.030Z,100321.83
2018-09-18T04:12:32.142Z,100321.02
2018-09-18T04:13:03.244Z,100320.11
2018-09-18T04:13:34.379Z,100320.61
2018-09-18T04:14:05.522Z,100322.81
2018-09-18T04:14:36.663Z,100323.25
2018-09-18T04:15:07.825Z,100321.94
2018-09-18T04:15:38.943Z,100322.88
2018-09-18T04:16:10.070Z,100318.96
2018-09-18T04:16:41.203Z,100322.34
2018-09-18T04:17:12.413Z,100331.55
2018-09-18T04:17:43.518Z,100328.48
2018-09-18T04:18:14.635Z,100329.59
2018-09-18T04:18:45.749Z,100329.49
2018-09-18T04:19:16.945Z,100322.66
2018-09-18T04:19:48.089Z,100327.69
2018-09-18T04:20:19.297Z,100327.88
2018-09-18T04:20:50.434Z,100325.00
2018-09-18T04:21:21.543Z,100329.69
2018-09-18T04:21:52.656Z,100327.66
2018-09-18T04:22:23.776Z,100322.09
2018-09-18T04:22:54.894Z,100328.28
2018-09-18T04:23:26.008Z,100323.61
2018-09-18T04:23:57.132Z,100321.99
2018-09-18T04:24:28.258Z,100326.97
2018-09-18T04:24:59.389Z,100325.83
2018-09-18T04:25:30.558Z,100327.77
2018-09-18T04:26:01.730Z,100335.81
2018-09-18T04:26:32.840Z,100328.48
2018-09-18T04:27:03.947Z,100332.98
2018-09-18T04:27:35.065Z,100330.44
2018-09-18T04:28:06.196Z,100331.05
2018-09-18T04:28:37.394Z,100329.82
2018-09-18T04:29:08.544Z,100333.47
2018-09-18T04:29:39.679Z,100330.48
2018-09-18T04:30:10.818Z,100333.28
2018-09-18T04:30:42.026Z,100329.84
2018-09-18T04:31:13.164Z,100329.16
2018-09-18T04:31:44.278Z,100331.12
2018-09-18T04:32:15.410Z,100333.80
2018-09-18T04:32:46.574Z,100332.95
2018-09-18T04:33:17.687Z,100334.63
2018-09-18T04:33:48.804Z,100332.88
2018-09-18T04:34:19.975Z,100334.63
2018-09-18T04:34:51.074Z,100333.33
2018-09-18T04:35:22.207Z,100335.91
2018-09-18T04:35:53.385Z,100327.59
2018-09-18T04:36:24.500Z,100324.87
2018-09-18T04:36:55.621Z,100327.56
2018-09-18T04:37:26.749Z,100337.84
2018-09-18T04:37:57.882Z,100334.44
2018-09-18T04:38:29.039Z,100339.78
2018-09-18T04:39:00.161Z,100333.26
2018-09-18T04:39:31.272Z,100339.03
2018-09-18T04:40:02.374Z,100332.86
2018-09-18T04:40:33.600Z,100335.58
2018-09-18T04:41:04.779Z,100335.13
2018-09-18T04:41:35.910Z,100335.16
2018-09-18T04:42:07.121Z,100337.34
2018-09-18T04:42:38.229Z,100339.08
2018-09-18T04:43:09.452Z,100328.85
2018-09-18T04:43:40.612Z,100335.98
2018-09-18T04:44:11.788Z,100336.05
2018-09-18T04:44:42.944Z,100331.36
2018-09-18T04:45:14.146Z,100334.60
2018-09-18T04:45:45.344Z,100334.42
2018-09-18T04:46:16.498Z,100334.66
2018-09-18T04:46:47.638Z,100334.48
2018-09-18T04:47:18.865Z,100334.72
2018-09-18T04:47:50.037Z,100339.20
2018-09-18T04:48:21.215Z,100337.53
2018-09-18T04:48:52.365Z,100339.75
2018-09-18T04:49:23.548Z,100341.97
2018-09-18T04:49:54.663Z,100342.53
2018-09-18T04:50:25.807Z,100340.86
2018-09-18T04:50:56.930Z,100341.06
2018-09-18T04:51:28.059Z,100342.44
2018-09-18T04:51:59.237Z,100340.36
2018-09-18T04:52:30.421Z,100339.88
2018-09-18T04:53:01.553Z,100342.83
2018-09-18T04:53:32.692Z,100343.61
2018-09-18T04:54:03.853Z,100340.02
2018-09-18T04:54:34.975Z,100341.34
2018-09-18T04:55:06.242Z,100336.03
2018-09-18T04:55:37.356Z,100342.48
2018-09-18T04:56:08.470Z,100340.25
2018-09-18T04:56:39.611Z,100344.62
2018-09-18T04:57:10.770Z,100334.65
2018-09-18T04:57:41.965Z,100344.39
2018-09-18T04:58:13.207Z,100342.70
2018-09-18T04:58:44.359Z,100344.73
2018-09-18T04:59:15.528Z,100342.77
2018-09-18T04:59:46.704Z,100345.27
2018-09-18T05:00:17.829Z,100346.30
2018-09-18T05:00:49.006Z,100345.65
2018-09-18T05:01:20.149Z,100344.42
2018-09-18T05:01:51.318Z,100343.13
2018-09-18T05:02:22.447Z,100342.38
2018-09-18T05:02:53.637Z,100346.39
2018-09-18T05:03:24.874Z,100346.78
2018-09-18T05:03:56.001Z,100345.52
2018-09-18T05:04:27.153Z,100345.07
2018-09-18T05:04:58.296Z,100341.73
2018-09-18T05:05:29.434Z,100347.69
2018-09-18T05:06:00.628Z,100342.73
2018-09-18T05:06:31.750Z,100344.62
2018-09-18T05:07:02.866Z,100342.86
2018-09-18T05:07:34.035Z,100344.54
2018-09-18T05:08:05.224Z,100353.04
2018-09-18T05:08:36.411Z,100349.41
2018-09-18T05:09:07.529Z,100350.89
2018-09-18T05:09:38.742Z,100347.10
2018-09-18T05:10:09.942Z,100348.03
2018-09-18T05:10:41.042Z,100347.55
2018-09-18T05:11:12.178Z,100347.65
2018-09-18T05:11:43.290Z,100345.54
2018-09-18T05:12:14.476Z,100345.31
2018-09-18T05:12:45.655Z,100348.34
2018-09-18T05:13:16.835Z,100346.34
2018-09-18T05:13:47.944Z,100345.35
2018-09-18T05:14:19.208Z,100352.62
2018-09-18T05:14:50.359Z,100344.90
2018-09-18T05:15:21.495Z,100346.23
2018-09-18T05:15:52.610Z,100345.65
2018-09-18T05:16:23.792Z,100346.88
2018-09-18T05:16:54.913Z,100347.55
2018-09-18T05:17:26.127Z,100345.35
2018-09-18T05:17:57.301Z,100344.57
2018-09-18T05:18:28.470Z,100349.42
2018-09-18T05:18:59.597Z,100343.52
2018-09-18T05:19:30.717Z,100347.27
2018-09-18T05:20:01.885Z,100350.49
2018-09-18T05:20:33.033Z,100348.17
2018-09-18T05:21:04.163Z,100347.19
2018-09-18T05:21:35.335Z,100345.66
2018-09-18T05:22:06.471Z,100344.69
2018-09-18T05:22:37.581Z,100346.98
2018-09-18T05:23:08.845Z,100349.98
2018-09-18T05:23:39.961Z,100348.52
2018-09-18T05:24:11.090Z,100345.66
2018-09-18T05:24:42.216Z,100343.00
2018-09-18T05:25:13.335Z,100352.64
2018-09-18T05:25:44.469Z,100342.82
2018-09-18T05:26:15.591Z,100346.67
2018-09-18T05:26:46.816Z,100347.07
2018-09-18T05:27:17.939Z,100346.95
2018-09-18T05:27:49.146Z,100342.34
2018-09-18T05:28:20.326Z,100342.55
2018-09-18T05:28:51.438Z,100341.38
2018-09-18T05:29:25.487Z,100343.16
2018-09-18T05:29:56.746Z,100345.27
2018-09-18T05:30:27.960Z,100345.56
2018-09-18T05:30:59.091Z,100341.68
2018-09-18T05:31:30.282Z,100339.69
2018-09-18T05:32:01.438Z,100347.73
2018-09-18T05:32:32.574Z,100343.42
2018-09-18T05:33:03.694Z,100337.67
2018-09-18T05:33:34.895Z,100340.62
2018-09-18T05:34:06.011Z,100345.13
2018-09-18T05:34:37.159Z,100342.88
2018-09-18T05:35:08.350Z,100346.97
2018-09-18T05:35:39.555Z,100358.83
2018-09-18T05:36:10.659Z,100339.16
2018-09-18T05:36:41.834Z,100346.92
2018-09-18T05:37:12.984Z,100346.38
2018-09-18T05:37:44.120Z,100345.15
2018-09-18T05:38:15.404Z,100347.89
2018-09-18T05:38:46.526Z,100347.11
2018-09-18T05:39:17.645Z,100345.78
2018-09-18T05:39:48.846Z,100344.37
2018-09-18T05:40:20.025Z,100347.31
2018-09-18T05:40:51.171Z,100343.34
2018-09-18T05:41:22.309Z,100345.84
2018-09-18T05:41:53.491Z,100343.09
2018-09-18T05:42:24.645Z,100344.17
2018-09-18T05:42:55.785Z,100349.16
2018-09-18T05:43:26.935Z,100345.59
2018-09-18T05:43:58.077Z,100347.45
2018-09-18T05:44:29.265Z,100344.95
2018-09-18T05:45:00.571Z,100345.44
2018-09-18T05:45:31.740Z,100347.78
2018-09-18T05:46:02.914Z,100348.27
2018-09-18T05:46:34.103Z,100354.20
2018-09-18T05:47:08.626Z,100350.67
2018-09-18T05:47:39.817Z,100355.53
2018-09-18T05:48:10.991Z,100347.39
2018-09-18T05:48:42.145Z,100354.53
2018-09-18T05:49:13.341Z,100350.89
2018-09-18T05:49:44.467Z,100347.46
2018-09-18T05:50:15.580Z,100350.74
2018-09-18T05:50:46.686Z,100352.03
2018-09-18T05:51:17.791Z,100350.95
2018-09-18T05:51:48.914Z,100349.59
2018-09-18T05:52:20.083Z,100350.25
2018-09-18T05:52:51.282Z,100352.75
2018-09-18T05:53:22.428Z,100355.61
2018-09-18T05:53:53.548Z,100356.98
2018-09-18T05:54:24.655Z,100353.79
2018-09-18T05:54:55.780Z,100356.09
2018-09-18T05:55:26.942Z,100354.39